Time;durP1;ratioP1;P1;durP2;ratioP2;P2;SDS_P1;SDS_P2;PMS_P1;PMS_P2;Temp;Humidity;BMP_temperature;BMP_pressure;BME280_temperature;BME280_humidity;BME280_pressure;Samples;Min_cycle;Max_cycle;Signal;HPM_P1;HPM_P2
2023/07/22 00:01:16;;;;;;;7.13;3.17;;;19.70;72.90;;;;;;5104294;28;20540;-79
2023/07/22 00:03:44;;;;;;;8.70;3.20;;;19.70;72.80;;;;;;5107406;28;20451;-79
2023/07/22 00:06:13;;;;;;;6.30;3.33;;;19.70;72.90;;;;;;5105681;28;20456;-78
2023/07/22 00:08:41;;;;;;;6.27;3.20;;;19.70;72.90;;;;;;5106068;28;20715;-78
2023/07/22 00:11:10;;;;;;;6.13;2.60;;;19.70;72.90;;;;;;5108097;28;20490;-79
2023/07/22 00:13:38;;;;;;;6.13;2.87;;;19.60;72.90;;;;;;5105478;28;20852;-79
2023/07/22 00:16:07;;;;;;;6.20;2.97;;;19.60;72.80;;;;;;5104606;27;20463;-79
2023/07/22 00:18:37;;;;;;;5.20;2.67;;;19.60;72.80;;;;;;5108202;28;20947;-79
2023/07/22 00:21:06;;;;;;;6.00;2.97;;;19.60;72.80;;;;;;5111805;28;20460;-79
2023/07/22 00:23:34;;;;;;;6.30;3.10;;;19.60;72.80;;;;;;5104675;28;20803;-78
2023/07/22 00:26:03;;;;;;;13.50;3.17;;;19.60;72.80;;;;;;5108417;28;20455;-79
2023/07/22 00:28:31;;;;;;;7.00;3.00;;;19.60;72.90;;;;;;5106087;28;20488;-78
2023/07/22 00:30:59;;;;;;;6.60;3.13;;;19.60;72.80;;;;;;5104755;28;20935;-78
2023/07/22 00:33:28;;;;;;;6.10;2.77;;;19.60;72.80;;;;;;5108933;28;20470;-79
2023/07/22 00:35:58;;;;;;;7.37;3.17;;;19.50;72.90;;;;;;5107014;28;20459;-79
2023/07/22 00:38:27;;;;;;;5.70;2.70;;;19.50;72.90;;;;;;5105296;28;20540;-78
2023/07/22 00:40:55;;;;;;;6.10;2.90;;;19.50;72.90;;;;;;5106572;28;20456;-78
2023/07/22 00:43:25;;;;;;;6.40;2.97;;;19.50;73.00;;;;;;5100300;28;21058;-79
2023/07/22 00:45:53;;;;;;;6.43;2.97;;;19.50;73.10;;;;;;5107937;28;20474;-78
2023/07/22 00:48:22;;;;;;;5.37;2.63;;;19.50;73.10;;;;;;5103495;28;20509;-78
2023/07/22 00:50:50;;;;;;;7.97;3.30;;;19.50;73.10;;;;;;5106498;28;20499;-79
2023/07/22 00:53:19;;;;;;;5.80;2.93;;;19.50;73.00;;;;;;5107081;28;20543;-78
2023/07/22 00:55:48;;;;;;;5.93;3.00;;;19.50;73.00;;;;;;5107823;28;21218;-77
2023/07/22 00:58:16;;;;;;;5.90;3.03;;;19.50;72.90;;;;;;5105384;28;20474;-78
2023/07/22 01:00:45;;;;;;;7.93;3.43;;;19.50;72.90;;;;;;5103715;28;22383;-78
2023/07/22 01:03:13;;;;;;;5.90;3.20;;;19.50;72.90;;;;;;5101884;28;20525;-79
2023/07/22 01:05:42;;;;;;;6.47;2.70;;;19.40;72.90;;;;;;5103323;28;20778;-78
2023/07/22 01:08:10;;;;;;;7.20;3.23;;;19.40;72.90;;;;;;5105186;28;20535;-78
2023/07/22 01:10:41;;;;;;;6.20;3.10;;;19.40;73.00;;;;;;5106179;28;20460;-80
2023/07/22 01:13:09;;;;;;;7.03;3.57;;;19.50;73.00;;;;;;5100040;28;21180;-79
2023/07/22 01:15:38;;;;;;;7.30;3.73;;;19.50;73.00;;;;;;5106502;28;20492;-78
2023/07/22 01:18:07;;;;;;;9.30;3.10;;;19.50;72.90;;;;;;5107094;28;20494;-79
2023/07/22 01:20:37;;;;;;;6.70;3.40;;;19.50;72.90;;;;;;5107340;28;20459;-79
2023/07/22 01:23:06;;;;;;;5.40;2.63;;;19.50;73.00;;;;;;5101104;28;20509;-77
2023/07/22 01:25:34;;;;;;;5.93;2.83;;;19.50;73.00;;;;;;5107215;28;20484;-79
2023/07/22 01:28:02;;;;;;;6.33;3.60;;;19.60;72.90;;;;;;5104670;28;20448;-78
2023/07/22 01:30:30;;;;;;;8.43;3.87;;;19.50;73.00;;;;;;5104453;28;20554;-78
2023/07/22 01:32:59;;;;;;;5.60;3.10;;;19.50;73.00;;;;;;5100217;28;20829;-77
2023/07/22 01:35:27;;;;;;;6.63;3.97;;;19.50;73.00;;;;;;5103267;27;20461;-78
2023/07/22 01:37:57;;;;;;;5.87;3.10;;;19.50;73.10;;;;;;5102270;28;20469;-78
2023/07/22 01:40:28;;;;;;;6.80;3.67;;;19.50;73.20;;;;;;5100194;28;20459;-79
2023/07/22 01:42:56;;;;;;;6.90;3.00;;;19.50;73.20;;;;;;5104255;28;20542;-78
2023/07/22 01:45:24;;;;;;;5.97;2.73;;;19.50;73.30;;;;;;5097360;28;20456;-79
2023/07/22 01:47:52;;;;;;;7.60;3.13;;;19.50;73.30;;;;;;5098398;28;20483;-78
2023/07/22 01:50:20;;;;;;;7.30;3.03;;;19.50;73.30;;;;;;5100537;28;20535;-77
2023/07/22 01:52:48;;;;;;;6.70;2.90;;;19.50;73.40;;;;;;5098188;28;21290;-78
2023/07/22 01:55:16;;;;;;;7.20;3.20;;;19.50;73.30;;;;;;5103753;28;20626;-79
2023/07/22 01:57:45;;;;;;;8.03;3.20;;;19.50;73.30;;;;;;5101778;28;20551;-79
2023/07/22 02:00:15;;;;;;;6.87;3.30;;;19.50;73.40;;;;;;5104186;28;20464;-78
2023/07/22 02:02:44;;;;;;;6.40;3.50;;;19.50;73.40;;;;;;5104811;28;20517;-78
2023/07/22 02:05:12;;;;;;;5.90;3.17;;;19.40;73.40;;;;;;5104905;28;20457;-78
2023/07/22 02:07:40;;;;;;;6.90;3.13;;;19.40;73.40;;;;;;5102857;28;20499;-79
2023/07/22 02:10:09;;;;;;;7.10;3.50;;;19.40;73.50;;;;;;5105313;28;20485;-80
2023/07/22 02:12:37;;;;;;;5.63;3.00;;;19.40;73.50;;;;;;5105986;28;20479;-77
2023/07/22 02:15:08;;;;;;;6.63;3.20;;;19.40;73.50;;;;;;5107034;28;20548;-79
2023/07/22 02:17:36;;;;;;;5.90;3.20;;;19.40;73.50;;;;;;5115468;27;20460;-77
2023/07/22 02:20:06;;;;;;;9.40;2.97;;;19.40;73.50;;;;;;5104513;28;20970;-79
2023/07/22 02:22:36;;;;;;;6.90;2.70;;;19.40;73.50;;;;;;5104427;28;20449;-78
2023/07/22 02:25:06;;;;;;;6.87;3.07;;;19.40;73.50;;;;;;5103702;28;20455;-79
2023/07/22 02:27:34;;;;;;;6.80;3.10;;;19.40;73.40;;;;;;5100095;28;20451;-79
2023/07/22 02:30:09;;;;;;;9.10;3.40;;;19.40;73.40;;;;;;5104250;28;20466;-79
2023/07/22 02:32:39;;;;;;;5.87;3.17;;;19.40;73.40;;;;;;5098989;28;21131;-78
2023/07/22 02:35:08;;;;;;;10.50;3.20;;;19.40;73.30;;;;;;5099903;28;20460;-79
2023/07/22 02:37:38;;;;;;;6.70;2.80;;;19.40;73.30;;;;;;5101380;28;20530;-79
2023/07/22 02:40:10;;;;;;;7.90;3.40;;;19.40;73.30;;;;;;5103852;28;20459;-78
2023/07/22 02:42:38;;;;;;;7.13;3.70;;;19.40;73.20;;;;;;5103652;28;20930;-77
2023/07/22 02:45:09;;;;;;;5.50;3.10;;;19.30;73.20;;;;;;5104738;28;21148;-79
2023/07/22 02:47:37;;;;;;;7.77;3.90;;;19.30;73.20;;;;;;5104915;28;20457;-78
2023/07/22 02:50:06;;;;;;;6.90;3.43;;;19.30;73.20;;;;;;5102699;28;20758;-78
2023/07/22 02:52:34;;;;;;;6.13;3.80;;;19.30;73.20;;;;;;5102625;28;20463;-78
2023/07/22 02:55:08;;;;;;;6.63;3.20;;;19.30;73.20;;;;;;5100355;28;20466;-77
2023/07/22 02:57:36;;;;;;;7.10;3.10;;;19.30;73.20;;;;;;5102452;28;20477;-77
2023/07/22 03:00:08;;;;;;;6.30;3.30;;;19.20;73.20;;;;;;5101838;28;20452;-78
2023/07/22 03:02:37;;;;;;;6.23;3.23;;;19.20;73.30;;;;;;5100351;28;20479;-78
2023/07/22 03:05:08;;;;;;;8.57;3.50;;;19.20;73.30;;;;;;5105725;28;20531;-78
2023/07/22 03:07:37;;;;;;;6.50;3.60;;;19.20;73.20;;;;;;5098592;28;20854;-79
2023/07/22 03:10:05;;;;;;;6.27;3.70;;;19.20;73.20;;;;;;5105598;28;20873;-78
2023/07/22 03:12:34;;;;;;;6.50;3.37;;;19.10;73.20;;;;;;5100665;28;20460;-78
2023/07/22 03:15:03;;;;;;;8.13;3.73;;;19.20;73.20;;;;;;5104689;28;20571;-79
2023/07/22 03:17:31;;;;;;;6.60;3.83;;;19.10;73.20;;;;;;5101551;28;20867;-78
2023/07/22 03:20:00;;;;;;;8.17;4.40;;;19.10;73.10;;;;;;5101435;28;20458;-78
2023/07/22 03:22:28;;;;;;;7.43;4.07;;;19.10;73.00;;;;;;5119118;27;20470;-77
2023/07/22 03:24:56;;;;;;;8.50;4.37;;;19.00;73.10;;;;;;5096373;28;20457;-78
2023/07/22 03:27:24;;;;;;;10.03;3.93;;;19.00;73.20;;;;;;5103995;28;20451;-80
2023/07/22 03:29:52;;;;;;;6.63;3.83;;;19.00;73.20;;;;;;5094847;28;20538;-78
2023/07/22 03:32:21;;;;;;;7.60;3.67;;;18.90;73.20;;;;;;5100326;28;20489;-79
2023/07/22 03:34:49;;;;;;;6.50;3.37;;;18.90;73.20;;;;;;5102383;28;20544;-79
2023/07/22 03:37:20;;;;;;;9.30;3.40;;;18.90;73.30;;;;;;5108835;28;21037;-77
2023/07/22 03:39:48;;;;;;;7.33;4.17;;;18.90;73.40;;;;;;5100541;28;21064;-78
2023/07/22 03:42:16;;;;;;;8.20;4.40;;;18.90;73.40;;;;;;5097891;28;20542;-78
2023/07/22 03:44:44;;;;;;;9.17;4.03;;;18.90;73.40;;;;;;5099585;28;20452;-78
2023/07/22 03:47:12;;;;;;;6.57;3.57;;;18.90;73.40;;;;;;5099169;28;21036;-77
2023/07/22 03:49:41;;;;;;;7.10;3.80;;;18.90;73.30;;;;;;5097734;28;20468;-79
2023/07/22 03:52:08;;;;;;;6.97;3.83;;;18.90;73.30;;;;;;5098562;28;20479;-79
2023/07/22 03:54:38;;;;;;;11.13;3.37;;;18.90;73.20;;;;;;5097333;28;20571;-78
2023/07/22 03:57:07;;;;;;;8.57;4.33;;;18.80;73.30;;;;;;5096140;28;20566;-80
2023/07/22 03:59:36;;;;;;;10.23;3.40;;;18.80;73.30;;;;;;5100326;28;20465;-79
2023/07/22 04:02:05;;;;;;;14.57;3.90;;;18.80;73.30;;;;;;5096815;28;20502;-80
2023/07/22 04:04:32;;;;;;;8.63;3.67;;;18.70;73.40;;;;;;5097747;28;20535;-80
2023/07/22 04:07:00;;;;;;;7.00;4.20;;;18.70;73.40;;;;;;5096918;28;20486;-79
2023/07/22 04:09:28;;;;;;;7.00;4.33;;;18.70;73.50;;;;;;5095466;28;20467;-80
2023/07/22 04:11:57;;;;;;;7.23;4.03;;;18.70;73.50;;;;;;5097621;28;20525;-78
2023/07/22 04:14:25;;;;;;;7.03;3.90;;;18.80;73.60;;;;;;5097390;28;20498;-79
2023/07/22 04:16:53;;;;;;;11.53;4.33;;;18.80;73.60;;;;;;5097869;28;20460;-79
2023/07/22 04:19:22;;;;;;;8.17;4.30;;;18.80;73.60;;;;;;5099515;28;20461;-77
2023/07/22 04:21:49;;;;;;;13.80;4.90;;;18.80;73.50;;;;;;5099966;28;21038;-80
2023/07/22 04:24:18;;;;;;;6.50;3.60;;;18.80;73.50;;;;;;5101027;28;20463;-78
2023/07/22 04:26:46;;;;;;;8.20;4.47;;;18.80;73.60;;;;;;5114846;27;21171;-79
2023/07/22 04:29:15;;;;;;;7.93;4.60;;;18.90;73.60;;;;;;5105686;28;20486;-79
2023/07/22 04:31:43;;;;;;;7.53;4.80;;;18.90;73.50;;;;;;5110428;28;20562;-79
2023/07/22 04:34:12;;;;;;;8.07;4.90;;;18.90;73.30;;;;;;5103642;28;20478;-81
2023/07/22 04:36:40;;;;;;;7.97;4.10;;;18.90;73.30;;;;;;5105012;28;20467;-79
2023/07/22 04:39:08;;;;;;;7.60;4.43;;;18.90;73.20;;;;;;5104734;28;20475;-79
2023/07/22 04:41:36;;;;;;;7.37;4.50;;;18.80;73.30;;;;;;5104484;28;20462;-79
2023/07/22 04:44:05;;;;;;;7.53;4.10;;;18.80;73.30;;;;;;5104770;28;20484;-79
2023/07/22 04:46:35;;;;;;;8.57;3.80;;;18.80;73.20;;;;;;5104404;28;20571;-80
2023/07/22 04:49:03;;;;;;;7.30;4.60;;;18.70;73.30;;;;;;5108902;28;20456;-79
2023/07/22 04:51:32;;;;;;;8.30;4.33;;;18.70;73.30;;;;;;5106521;28;20488;-80
2023/07/22 04:54:00;;;;;;;7.67;4.00;;;18.80;73.20;;;;;;5097402;28;21364;-78
2023/07/22 04:56:29;;;;;;;7.23;3.80;;;18.80;73.10;;;;;;5106121;28;21026;-80
2023/07/22 04:58:57;;;;;;;7.43;4.13;;;18.80;73.10;;;;;;5103266;28;20822;-79
2023/07/22 05:01:25;;;;;;;12.13;4.07;;;18.90;73.20;;;;;;5103604;28;20479;-79
2023/07/22 05:03:54;;;;;;;7.53;4.30;;;18.90;73.20;;;;;;5098155;28;20545;-79
2023/07/22 05:06:23;;;;;;;7.17;4.40;;;19.00;73.20;;;;;;5100814;28;20911;-78
2023/07/22 05:08:52;;;;;;;9.43;4.87;;;19.00;73.20;;;;;;5103564;28;20457;-79
2023/07/22 05:11:20;;;;;;;8.90;5.07;;;19.10;73.00;;;;;;5102986;28;20550;-80
2023/07/22 05:13:48;;;;;;;7.40;4.10;;;19.10;73.00;;;;;;5103798;27;20489;-79
2023/07/22 05:16:18;;;;;;;8.50;4.53;;;19.10;73.00;;;;;;5105674;28;20543;-78
2023/07/22 05:18:46;;;;;;;6.93;3.80;;;19.20;73.00;;;;;;5105666;28;20861;-78
2023/07/22 05:21:15;;;;;;;8.73;4.17;;;19.20;73.10;;;;;;5104865;28;20470;-79
2023/07/22 05:23:44;;;;;;;8.40;4.50;;;19.30;73.20;;;;;;5107997;27;20456;-78
2023/07/22 05:26:11;;;;;;;8.17;4.90;;;19.30;73.20;;;;;;5100021;28;20451;-78
2023/07/22 05:28:39;;;;;;;8.10;4.57;;;19.40;73.10;;;;;;5098978;28;20453;-79
2023/07/22 05:31:07;;;;;;;8.10;4.53;;;19.40;73.00;;;;;;5101172;28;20476;-77
2023/07/22 05:33:37;;;;;;;8.97;4.53;;;19.40;72.90;;;;;;5101137;28;20949;-79
2023/07/22 05:36:05;;;;;;;9.33;4.50;;;19.40;72.70;;;;;;5102626;28;20578;-79
2023/07/22 05:38:35;;;;;;;6.83;3.60;;;19.40;72.60;;;;;;5099153;28;20555;-79
2023/07/22 05:41:03;;;;;;;7.40;4.43;;;19.80;73.00;;;;;;5103853;28;20475;-79
2023/07/22 05:43:31;;;;;;;7.50;4.03;;;20.10;71.80;;;;;;5094210;28;20546;-79
2023/07/22 05:45:59;;;;;;;7.30;4.20;;;20.10;71.50;;;;;;5101515;28;20457;-79
2023/07/22 05:48:27;;;;;;;8.03;4.20;;;20.10;71.40;;;;;;5102628;27;21025;-79
2023/07/22 05:50:56;;;;;;;8.57;4.07;;;20.10;71.40;;;;;;5101225;28;20489;-78
2023/07/22 05:53:24;;;;;;;7.10;4.17;;;20.10;71.20;;;;;;5108059;28;20455;-79
2023/07/22 05:55:54;;;;;;;9.17;4.97;;;20.10;71.20;;;;;;5104732;28;20504;-78
2023/07/22 05:58:24;;;;;;;7.70;4.13;;;20.10;71.10;;;;;;5100528;28;20452;-79
2023/07/22 06:00:55;;;;;;;8.10;4.40;;;20.10;71.40;;;;;;5102051;28;20557;-78
2023/07/22 06:03:23;;;;;;;8.97;4.20;;;20.20;71.10;;;;;;5107134;28;20448;-79
2023/07/22 06:05:51;;;;;;;7.47;3.80;;;20.30;70.90;;;;;;5104930;28;20444;-78
2023/07/22 06:08:19;;;;;;;8.43;4.70;;;20.30;70.80;;;;;;5104117;28;20582;-79
2023/07/22 06:10:48;;;;;;;7.07;3.83;;;20.30;70.70;;;;;;5099314;28;21357;-79
2023/07/22 06:13:17;;;;;;;11.40;4.10;;;20.30;70.70;;;;;;5101672;28;20461;-79
2023/07/22 06:15:45;;;;;;;9.33;4.50;;;20.30;70.60;;;;;;5104464;28;20479;-79
2023/07/22 06:18:13;;;;;;;9.40;4.37;;;20.20;70.60;;;;;;5102340;28;20547;-79
2023/07/22 06:20:41;;;;;;;7.40;4.40;;;20.20;70.60;;;;;;5102202;28;20461;-79
2023/07/22 06:23:09;;;;;;;10.90;4.20;;;20.20;70.60;;;;;;5097578;28;20452;-79
2023/07/22 06:25:37;;;;;;;10.80;4.70;;;20.20;70.60;;;;;;5100425;28;20543;-78
2023/07/22 06:28:05;;;;;;;7.23;4.20;;;20.20;70.60;;;;;;5100244;28;20460;-79
2023/07/22 06:30:35;;;;;;;7.90;4.40;;;20.20;70.60;;;;;;5105797;28;21067;-79
2023/07/22 06:33:03;;;;;;;7.20;3.90;;;20.30;70.70;;;;;;5097507;28;20888;-78
2023/07/22 06:35:31;;;;;;;7.60;4.50;;;20.30;70.60;;;;;;5102699;28;20539;-79
2023/07/22 06:37:59;;;;;;;7.93;4.03;;;20.30;70.50;;;;;;5096941;28;20456;-80
2023/07/22 06:40:27;;;;;;;6.53;3.80;;;20.30;70.50;;;;;;5105722;28;20477;-79
2023/07/22 06:42:55;;;;;;;11.80;4.07;;;20.30;70.40;;;;;;5099439;28;20471;-80
2023/07/22 06:45:23;;;;;;;7.30;4.23;;;20.40;70.40;;;;;;5102438;28;20475;-80
2023/07/22 06:47:52;;;;;;;7.50;4.07;;;20.40;70.30;;;;;;5100013;28;20555;-79
2023/07/22 06:50:20;;;;;;;6.40;3.97;;;20.40;70.30;;;;;;5102785;28;20460;-78
2023/07/22 06:52:49;;;;;;;7.60;4.37;;;20.40;70.20;;;;;;5099549;28;20496;-80
2023/07/22 06:55:17;;;;;;;7.13;3.80;;;20.40;70.10;;;;;;5100842;28;20473;-79
2023/07/22 06:57:46;;;;;;;7.60;4.57;;;20.50;70.00;;;;;;5102294;28;20551;-79
2023/07/22 07:00:15;;;;;;;7.17;3.90;;;20.50;69.90;;;;;;5102459;28;20976;-80
2023/07/22 07:02:44;;;;;;;9.30;4.37;;;20.60;69.80;;;;;;5099828;28;22222;-79
2023/07/22 07:05:16;;;;;;;7.40;4.23;;;20.60;69.70;;;;;;5099536;28;20456;-79
2023/07/22 07:07:44;;;;;;;8.07;3.83;;;20.60;69.70;;;;;;5096880;28;20457;-79
2023/07/22 07:10:12;;;;;;;10.37;3.93;;;20.70;69.50;;;;;;5102232;28;20465;-77
2023/07/22 07:12:40;;;;;;;8.97;4.40;;;20.70;69.40;;;;;;5104183;28;20448;-78
2023/07/22 07:15:09;;;;;;;6.30;3.50;;;20.80;69.30;;;;;;5099274;28;20453;-79
2023/07/22 07:17:37;;;;;;;6.70;3.77;;;20.80;69.20;;;;;;5103163;28;20470;-78
2023/07/22 07:20:06;;;;;;;7.60;3.57;;;20.80;69.20;;;;;;5098847;28;20452;-79
2023/07/22 07:22:36;;;;;;;7.50;3.43;;;20.90;69.20;;;;;;5098910;28;20488;-78
2023/07/22 07:25:05;;;;;;;7.80;3.67;;;21.00;69.10;;;;;;5096571;28;20459;-78
2023/07/22 07:27:35;;;;;;;9.97;3.70;;;21.10;69.00;;;;;;5107406;28;20452;-78
2023/07/22 07:30:03;;;;;;;7.87;4.53;;;21.10;69.00;;;;;;5103242;28;20451;-79
2023/07/22 07:32:31;;;;;;;6.00;3.50;;;21.20;69.00;;;;;;5099414;28;20470;-79
2023/07/22 07:34:59;;;;;;;9.53;3.77;;;21.20;68.90;;;;;;5099427;28;20567;-77
2023/07/22 07:37:27;;;;;;;8.13;3.53;;;21.20;68.80;;;;;;5097586;28;20555;-79
2023/07/22 07:39:59;;;;;;;10.77;3.80;;;21.30;68.60;;;;;;5100060;28;20530;-80
2023/07/22 07:42:27;;;;;;;7.20;3.53;;;21.30;68.60;;;;;;5101405;28;20499;-78
2023/07/22 07:44:56;;;;;;;7.50;3.43;;;21.30;68.60;;;;;;5097415;28;20471;-80
2023/07/22 07:47:24;;;;;;;8.73;3.70;;;21.40;68.50;;;;;;5102262;28;21011;-77
2023/07/22 07:49:52;;;;;;;7.90;4.13;;;21.40;68.30;;;;;;5099478;28;20992;-76
2023/07/22 07:52:20;;;;;;;9.23;3.60;;;21.40;68.30;;;;;;5094941;28;20551;-78
2023/07/22 07:54:48;;;;;;;10.00;4.70;;;21.40;68.30;;;;;;5103422;28;20468;-76
2023/07/22 07:57:18;;;;;;;10.00;5.23;;;21.40;68.20;;;;;;5098120;28;20491;-77
2023/07/22 07:59:46;;;;;;;11.63;5.13;;;21.40;68.20;;;;;;5096598;28;20458;-76
2023/07/22 08:02:14;;;;;;;7.50;3.80;;;21.40;68.20;;;;;;5095380;28;20479;-76
2023/07/22 08:04:43;;;;;;;7.20;4.07;;;21.40;68.10;;;;;;5101919;27;20486;-77
2023/07/22 08:07:10;;;;;;;6.10;3.10;;;21.40;68.00;;;;;;5099315;28;20483;-77
2023/07/22 08:09:38;;;;;;;8.90;3.50;;;21.40;68.00;;;;;;5096662;28;20447;-76
2023/07/22 08:12:08;;;;;;;7.20;3.10;;;21.40;68.00;;;;;;5100755;28;20456;-77
2023/07/22 08:14:37;;;;;;;7.83;2.97;;;21.30;68.10;;;;;;5102873;28;20910;-76
2023/07/22 08:17:05;;;;;;;6.57;3.73;;;21.30;68.10;;;;;;5102859;28;20476;-76
2023/07/22 08:19:33;;;;;;;8.63;3.90;;;21.30;68.20;;;;;;5098603;28;20449;-76
2023/07/22 08:22:01;;;;;;;6.40;3.30;;;21.40;68.30;;;;;;5105038;28;20490;-76
2023/07/22 08:24:29;;;;;;;7.40;3.73;;;21.40;68.30;;;;;;5098572;28;20552;-76
2023/07/22 08:26:57;;;;;;;6.20;3.13;;;21.40;68.40;;;;;;5102559;28;20455;-75
2023/07/22 08:29:26;;;;;;;7.47;3.30;;;21.50;68.40;;;;;;5099250;28;20471;-76
2023/07/22 08:31:55;;;;;;;7.03;3.40;;;21.60;68.40;;;;;;5103120;28;21072;-76
2023/07/22 08:34:23;;;;;;;9.33;3.83;;;21.70;68.00;;;;;;5106936;28;20564;-76
2023/07/22 08:36:51;;;;;;;6.97;3.60;;;21.70;67.80;;;;;;5105048;28;21073;-76
2023/07/22 08:39:19;;;;;;;7.73;3.30;;;21.70;67.80;;;;;;5099867;28;20559;-76
2023/07/22 08:41:50;;;;;;;8.83;4.50;;;21.80;67.90;;;;;;5095749;28;20459;-76
2023/07/22 08:44:20;;;;;;;9.40;3.40;;;21.80;67.70;;;;;;5107556;28;20505;-76
2023/07/22 08:46:59;;;;;;;7.73;3.57;;;21.80;67.70;;;;;;5106755;28;20443;-77
2023/07/22 08:49:28;;;;;;;8.00;3.77;;;21.90;67.60;;;;;;5103786;28;20562;-76
2023/07/22 08:51:57;;;;;;;7.30;3.30;;;21.90;67.40;;;;;;5104944;28;20451;-77
2023/07/22 08:54:26;;;;;;;7.00;3.60;;;22.00;67.50;;;;;;5105381;28;20459;-77
2023/07/22 08:56:54;;;;;;;6.17;3.07;;;22.00;67.40;;;;;;5101346;28;20487;-76
2023/07/22 08:59:22;;;;;;;7.83;3.47;;;22.10;67.40;;;;;;5104954;28;20486;-76
2023/07/22 09:01:52;;;;;;;7.50;3.33;;;22.10;67.20;;;;;;5098465;28;20480;-77
2023/07/22 09:04:21;;;;;;;8.00;3.60;;;22.20;67.00;;;;;;5100346;28;20469;-76
2023/07/22 09:06:50;;;;;;;6.83;3.10;;;22.20;66.90;;;;;;5097308;28;20464;-77
2023/07/22 09:09:19;;;;;;;8.50;3.13;;;22.30;66.70;;;;;;5099300;28;20465;-76
2023/07/22 09:11:47;;;;;;;6.10;3.10;;;22.40;66.70;;;;;;5103166;28;20828;-77
2023/07/22 09:14:16;;;;;;;7.10;3.30;;;22.40;66.70;;;;;;5101900;28;20452;-77
2023/07/22 09:17:02;;;;;;;9.33;3.83;;;22.50;66.50;;;;;;5104078;28;20521;-76
2023/07/22 09:19:32;;;;;;;7.30;3.33;;;22.50;66.40;;;;;;5103317;28;20453;-76
2023/07/22 09:22:00;;;;;;;7.33;3.00;;;22.60;66.30;;;;;;5099771;28;20456;-77
2023/07/22 09:24:29;;;;;;;6.70;3.70;;;22.60;66.20;;;;;;5105340;28;20515;-77
2023/07/22 09:26:58;;;;;;;6.13;3.40;;;22.70;66.30;;;;;;5102656;28;20445;-77
2023/07/22 09:29:35;;;;;;;8.33;2.93;;;22.80;66.20;;;;;;5105567;28;20456;-77
2023/07/22 09:32:04;;;;;;;6.00;2.90;;;22.90;66.00;;;;;;5103502;28;20868;-76
2023/07/22 09:34:33;;;;;;;5.80;2.60;;;22.90;65.90;;;;;;5103788;28;20528;-76
2023/07/22 09:37:03;;;;;;;10.23;2.70;;;22.90;65.70;;;;;;5099158;28;21096;-76
2023/07/22 09:39:31;;;;;;;6.60;2.73;;;23.00;65.60;;;;;;5104336;28;20513;-77
2023/07/22 09:42:01;;;;;;;8.43;2.90;;;23.00;65.40;;;;;;5102957;28;21020;-77
2023/07/22 09:44:31;;;;;;;9.07;2.73;;;23.10;65.10;;;;;;5099280;28;20935;-76
2023/07/22 09:46:59;;;;;;;10.00;3.37;;;23.20;64.80;;;;;;5103280;28;20474;-77
2023/07/22 09:49:28;;;;;;;8.20;3.50;;;23.20;64.60;;;;;;5103141;28;20796;-77
2023/07/22 09:51:57;;;;;;;6.37;2.33;;;23.30;64.30;;;;;;5098766;28;20461;-77
2023/07/22 09:54:30;;;;;;;6.50;2.87;;;23.30;64.30;;;;;;5098692;28;20602;-77
2023/07/22 09:56:59;;;;;;;5.80;2.27;;;23.40;64.20;;;;;;5099314;28;20485;-77
2023/07/22 09:59:30;;;;;;;7.57;2.53;;;23.50;64.10;;;;;;5102568;27;20466;-77
2023/07/22 10:02:02;;;;;;;7.20;3.23;;;23.60;63.80;;;;;;5102472;27;20475;-77
2023/07/22 10:04:34;;;;;;;7.47;2.97;;;23.70;63.60;;;;;;5100224;27;20473;-76
2023/07/22 10:07:06;;;;;;;6.00;3.03;;;23.80;63.60;;;;;;5102880;28;20456;-76
2023/07/22 10:09:38;;;;;;;8.53;3.17;;;23.80;63.40;;;;;;5103986;27;20465;-76
2023/07/22 10:12:07;;;;;;;7.50;3.07;;;23.90;63.20;;;;;;5103408;28;20846;-76
2023/07/22 10:14:35;;;;;;;9.03;2.43;;;23.90;63.00;;;;;;5102917;27;20460;-76
2023/07/22 10:17:07;;;;;;;10.07;2.70;;;24.00;62.90;;;;;;5103941;28;21079;-77
2023/07/22 10:19:35;;;;;;;6.60;3.40;;;24.00;62.80;;;;;;5103309;28;20444;-76
2023/07/22 10:22:07;;;;;;;9.10;3.40;;;24.10;62.50;;;;;;5099494;28;20859;-76
2023/07/22 10:24:36;;;;;;;6.03;3.10;;;24.20;62.30;;;;;;5098555;28;20513;-77
2023/07/22 10:27:05;;;;;;;7.00;2.90;;;24.20;61.90;;;;;;5103239;27;20465;-76
2023/07/22 10:29:34;;;;;;;6.43;2.83;;;24.10;61.70;;;;;;5101837;28;20544;-76
2023/07/22 10:32:04;;;;;;;7.53;3.03;;;24.10;61.60;;;;;;5100583;28;20484;-76
2023/07/22 10:34:32;;;;;;;6.97;3.13;;;24.20;61.60;;;;;;5096136;28;20517;-76
2023/07/22 10:37:00;;;;;;;8.00;2.87;;;24.20;61.50;;;;;;5100779;28;20563;-76
2023/07/22 10:39:30;;;;;;;5.50;2.70;;;24.20;61.50;;;;;;5099451;27;20461;-77
2023/07/22 10:42:04;;;;;;;6.80;3.10;;;24.20;61.40;;;;;;5105350;28;20543;-76
2023/07/22 10:44:33;;;;;;;7.80;3.40;;;24.30;61.20;;;;;;5100647;28;20559;-76
2023/07/22 10:47:03;;;;;;;6.40;3.17;;;24.30;61.00;;;;;;5097616;28;20816;-77
2023/07/22 10:49:44;;;;;;;7.43;3.37;;;24.40;60.80;;;;;;5101340;28;20460;-76
2023/07/22 10:52:14;;;;;;;8.43;3.50;;;24.40;60.60;;;;;;5101729;28;20519;-76
2023/07/22 10:54:43;;;;;;;10.43;3.00;;;24.40;60.50;;;;;;5096175;27;20461;-76
2023/07/22 10:57:24;;;;;;;9.13;3.60;;;24.50;60.50;;;;;;5103478;28;21313;-76
2023/07/22 10:59:53;;;;;;;8.17;3.07;;;24.60;60.20;;;;;;5102045;28;21179;-76
2023/07/22 11:02:26;;;;;;;8.37;3.50;;;24.60;60.20;;;;;;5094087;28;20487;-76
2023/07/22 11:04:59;;;;;;;10.70;3.27;;;24.60;60.00;;;;;;5095896;28;20471;-77
2023/07/22 11:07:32;;;;;;;7.97;3.30;;;24.70;59.80;;;;;;5102705;28;20448;-77
2023/07/22 11:10:15;;;;;;;6.83;2.90;;;24.70;59.50;;;;;;5095238;28;20461;-77
2023/07/22 11:12:45;;;;;;;9.23;3.20;;;24.80;59.10;;;;;;5100503;28;20481;-77
2023/07/22 11:15:17;;;;;;;13.17;3.50;;;24.80;58.90;;;;;;5101285;28;20906;-77
2023/07/22 11:17:45;;;;;;;57.23;8.70;;;24.80;58.70;;;;;;5095847;28;20500;-77
2023/07/22 11:20:13;;;;;;;28.63;5.43;;;24.80;58.50;;;;;;5098928;28;20467;-77
2023/07/22 11:22:43;;;;;;;45.67;4.90;;;24.80;58.40;;;;;;5101266;28;20969;-77
2023/07/22 11:25:19;;;;;;;16.30;3.80;;;24.80;58.20;;;;;;5100971;28;20448;-77
2023/07/22 11:27:47;;;;;;;12.23;3.70;;;24.90;57.90;;;;;;5095823;28;20905;-77
2023/07/22 11:30:15;;;;;;;11.40;3.47;;;24.90;57.80;;;;;;5099956;28;20645;-77
2023/07/22 11:32:45;;;;;;;6.13;2.97;;;25.00;57.40;;;;;;5099386;28;22317;-77
2023/07/22 11:35:17;;;;;;;6.33;3.00;;;25.00;57.00;;;;;;5097972;28;20462;-78
2023/07/22 11:37:45;;;;;;;7.97;3.33;;;25.10;57.00;;;;;;5098739;28;21043;-77
2023/07/22 11:40:14;;;;;;;9.10;3.13;;;25.10;56.70;;;;;;5097428;28;20436;-77
2023/07/22 11:42:45;;;;;;;11.10;2.93;;;25.20;56.60;;;;;;5101580;28;20528;-78
2023/07/22 11:45:14;;;;;;;5.63;2.60;;;25.20;56.20;;;;;;5099498;28;20468;-78
2023/07/22 11:47:44;;;;;;;9.70;2.77;;;25.20;56.00;;;;;;5096316;28;20548;-77
2023/07/22 11:50:12;;;;;;;8.67;3.13;;;25.20;55.70;;;;;;5098848;28;20477;-80
2023/07/22 11:52:40;;;;;;;10.13;2.50;;;25.20;55.50;;;;;;5099289;28;20946;-79
2023/07/22 11:55:09;;;;;;;9.33;3.03;;;25.20;55.10;;;;;;5099820;28;20471;-78
2023/07/22 11:57:42;;;;;;;19.47;3.70;;;25.20;54.80;;;;;;5099258;28;20797;-79
2023/07/22 12:00:12;;;;;;;10.67;3.47;;;25.20;54.70;;;;;;5116278;28;20449;-79
2023/07/22 12:02:42;;;;;;;8.20;3.13;;;25.30;54.60;;;;;;5101114;28;20462;-78
2023/07/22 12:05:10;;;;;;;9.60;3.60;;;25.30;54.50;;;;;;5097215;28;21190;-80
2023/07/22 12:07:40;;;;;;;7.67;3.00;;;25.40;54.50;;;;;;5103262;28;20452;-79
2023/07/22 12:10:10;;;;;;;8.30;2.50;;;25.40;54.20;;;;;;5102343;28;20985;-80
2023/07/22 12:12:41;;;;;;;7.60;2.87;;;25.30;53.90;;;;;;5097396;28;20464;-80
2023/07/22 12:15:15;;;;;;;11.37;3.20;;;25.20;53.80;;;;;;5094471;28;21012;-80
2023/07/22 12:17:49;;;;;;;20.30;10.77;;;25.20;53.70;;;;;;5098474;28;20448;-80
2023/07/22 12:20:18;;;;;;;16.30;4.73;;;25.10;53.70;;;;;;5100737;28;20489;-80
2023/07/22 12:22:46;;;;;;;8.57;3.10;;;25.10;53.80;;;;;;5100554;28;21004;-79
2023/07/22 12:25:14;;;;;;;7.50;2.40;;;25.00;53.80;;;;;;5102166;28;20536;-79
2023/07/22 12:27:42;;;;;;;12.67;3.00;;;24.90;53.70;;;;;;5098034;28;20818;-79
2023/07/22 12:30:12;;;;;;;13.87;3.67;;;24.90;53.80;;;;;;5102630;28;20491;-79
2023/07/22 12:32:40;;;;;;;8.80;3.67;;;24.90;53.80;;;;;;5099915;28;20470;-78
2023/07/22 12:35:09;;;;;;;7.80;3.07;;;24.90;53.60;;;;;;5096934;28;20461;-78
2023/07/22 12:37:37;;;;;;;9.23;3.20;;;24.80;53.70;;;;;;5097208;28;20467;-78
2023/07/22 12:40:08;;;;;;;5.63;2.63;;;24.80;53.80;;;;;;5097542;28;20488;-78
2023/07/22 12:42:36;;;;;;;8.83;2.93;;;24.80;54.00;;;;;;5101344;28;20472;-78
2023/07/22 12:45:06;;;;;;;9.53;3.10;;;24.90;54.00;;;;;;5100924;28;21007;-79
2023/07/22 12:47:35;;;;;;;9.73;3.17;;;24.90;54.00;;;;;;5099144;28;21234;-78
2023/07/22 12:50:07;;;;;;;15.80;3.37;;;24.80;54.00;;;;;;5106267;28;20448;-78
2023/07/22 12:52:35;;;;;;;10.97;3.83;;;24.80;54.10;;;;;;5102973;28;20934;-78
2023/07/22 12:55:03;;;;;;;6.70;3.30;;;24.70;54.30;;;;;;5101659;28;20934;-79